Weather at Lamezia Terme Airport

Public forecast

Using degrees Celsius for public forecast. Weather courtesy of forecast.io.

Current aviation weather report (METAR) for Lamezia Terme Airport

Retrieved 2022/01/29 10:20 UTC (21 minutes ago):

LICA 291020Z AUTO 32014KT 300V360 9999 SCT064/// 11/M02 Q1024

Aviation forecast (TAF) for Lamezia Terme Airport

Retrieved 2022/01/29 06:22 UTC (4 hours ago):

TAF LICA 290500Z 2906/3006 28015KT 9999 FEW040 TEMPO 2906/2911 SHRA